sensor_id;sensor_type;location;lat;lon;timestamp;pressure;altitude;pressure_sealevel;temperature;humidity
56825;BME280;42705;50.326;18.772;2024-03-25T00:01:40;97080.44;;;3.64;63.45
56825;BME280;42705;50.326;18.772;2024-03-25T00:07:02;97084.80;;;3.59;63.71
56825;BME280;42705;50.326;18.772;2024-03-25T00:12:27;97082.89;;;3.55;63.91
56825;BME280;42705;50.326;18.772;2024-03-25T00:17:50;97085.59;;;3.54;64.16
56825;BME280;42705;50.326;18.772;2024-03-25T00:23:12;97081.25;;;3.52;64.43
56825;BME280;42705;50.326;18.772;2024-03-25T00:28:33;97076.20;;;3.49;64.49
56825;BME280;42705;50.326;18.772;2024-03-25T00:33:55;97073.47;;;3.42;64.87
56825;BME280;42705;50.326;18.772;2024-03-25T00:39:17;97066.28;;;3.35;65.09
56825;BME280;42705;50.326;18.772;2024-03-25T00:44:39;97064.76;;;3.28;65.41
56825;BME280;42705;50.326;18.772;2024-03-25T00:50:01;97066.53;;;3.24;65.52
56825;BME280;42705;50.326;18.772;2024-03-25T00:55:23;97069.62;;;3.22;65.84
56825;BME280;42705;50.326;18.772;2024-03-25T01:00:45;97064.02;;;3.20;65.92
56825;BME280;42705;50.326;18.772;2024-03-25T01:06:07;97055.73;;;3.23;66.04
56825;BME280;42705;50.326;18.772;2024-03-25T01:11:29;97050.13;;;3.26;66.35
56825;BME280;42705;50.326;18.772;2024-03-25T01:16:51;97054.98;;;3.30;66.42
56825;BME280;42705;50.326;18.772;2024-03-25T01:22:12;97052.77;;;3.29;66.13
56825;BME280;42705;50.326;18.772;2024-03-25T01:27:34;97050.58;;;3.25;66.20
56825;BME280;42705;50.326;18.772;2024-03-25T01:32:56;97048.30;;;3.19;66.51
56825;BME280;42705;50.326;18.772;2024-03-25T01:38:17;97043.09;;;3.13;66.52
56825;BME280;42705;50.326;18.772;2024-03-25T01:43:39;97044.16;;;3.06;66.59
56825;BME280;42705;50.326;18.772;2024-03-25T01:49:01;97040.27;;;3.01;66.68
56825;BME280;42705;50.326;18.772;2024-03-25T01:54:23;97037.97;;;2.97;66.63
56825;BME280;42705;50.326;18.772;2024-03-25T01:59:45;97039.87;;;2.97;67.07
56825;BME280;42705;50.326;18.772;2024-03-25T02:05:08;97039.60;;;2.98;67.15
56825;BME280;42705;50.326;18.772;2024-03-25T02:10:32;97038.05;;;2.98;67.24
56825;BME280;42705;50.326;18.772;2024-03-25T02:15:54;97033.56;;;3.00;67.36
56825;BME280;42705;50.326;18.772;2024-03-25T02:21:17;97037.96;;;3.02;67.26
56825;BME280;42705;50.326;18.772;2024-03-25T02:26:39;97035.49;;;3.02;67.27
56825;BME280;42705;50.326;18.772;2024-03-25T02:32:02;97035.98;;;3.00;67.55
56825;BME280;42705;50.326;18.772;2024-03-25T02:37:25;97038.33;;;2.99;67.65
56825;BME280;42705;50.326;18.772;2024-03-25T02:42:47;97039.39;;;3.03;67.85
56825;BME280;42705;50.326;18.772;2024-03-25T02:48:09;97039.63;;;3.04;67.78
56825;BME280;42705;50.326;18.772;2024-03-25T02:53:32;97039.86;;;3.08;67.91
56825;BME280;42705;50.326;18.772;2024-03-25T02:58:54;97035.74;;;3.12;67.92
56825;BME280;42705;50.326;18.772;2024-03-25T03:04:15;97035.52;;;3.17;67.69
56825;BME280;42705;50.326;18.772;2024-03-25T03:09:37;97038.08;;;3.21;68.06
56825;BME280;42705;50.326;18.772;2024-03-25T03:14:59;97037.08;;;3.23;68.05
56825;BME280;42705;50.326;18.772;2024-03-25T03:20:21;97033.98;;;3.25;68.18
56825;BME280;42705;50.326;18.772;2024-03-25T03:25:43;97031.34;;;3.27;67.93
56825;BME280;42705;50.326;18.772;2024-03-25T03:31:04;97028.16;;;3.28;68.06
56825;BME280;42705;50.326;18.772;2024-03-25T03:36:27;97026.44;;;3.33;68.26
56825;BME280;42705;50.326;18.772;2024-03-25T03:41:48;97028.21;;;3.36;68.33
56825;BME280;42705;50.326;18.772;2024-03-25T03:47:11;97031.17;;;3.36;68.22
56825;BME280;42705;50.326;18.772;2024-03-25T03:52:33;97036.77;;;3.37;68.33
56825;BME280;42705;50.326;18.772;2024-03-25T03:57:55;97044.37;;;3.39;68.61
56825;BME280;42705;50.326;18.772;2024-03-25T04:03:17;97046.71;;;3.40;68.38
56825;BME280;42705;50.326;18.772;2024-03-25T04:08:39;97050.74;;;3.39;68.50
56825;BME280;42705;50.326;18.772;2024-03-25T04:14:01;97052.66;;;3.35;69.04
56825;BME280;42705;50.326;18.772;2024-03-25T04:19:25;97055.27;;;3.26;69.39
56825;BME280;42705;50.326;18.772;2024-03-25T04:24:46;97049.00;;;3.12;69.91
56825;BME280;42705;50.326;18.772;2024-03-25T04:30:10;97054.09;;;3.02;70.17
56825;BME280;42705;50.326;18.772;2024-03-25T04:35:32;97052.87;;;2.94;70.55
56825;BME280;42705;50.326;18.772;2024-03-25T04:40:54;97058.70;;;2.91;70.57
56825;BME280;42705;50.326;18.772;2024-03-25T04:46:16;97056.68;;;2.88;70.97
56825;BME280;42705;50.326;18.772;2024-03-25T04:51:38;97055.61;;;2.93;71.52
56825;BME280;42705;50.326;18.772;2024-03-25T04:56:59;97057.51;;;2.96;71.61
56825;BME280;42705;50.326;18.772;2024-03-25T05:02:24;97057.77;;;3.04;71.57
56825;BME280;42705;50.326;18.772;2024-03-25T05:07:46;97054.06;;;3.07;71.62
56825;BME280;42705;50.326;18.772;2024-03-25T05:13:09;97056.22;;;3.12;71.57
56825;BME280;42705;50.326;18.772;2024-03-25T05:18:31;97059.46;;;3.22;72.02
56825;BME280;42705;50.326;18.772;2024-03-25T05:23:53;97060.35;;;3.28;72.10
56825;BME280;42705;50.326;18.772;2024-03-25T05:29:15;97063.16;;;3.35;72.00
56825;BME280;42705;50.326;18.772;2024-03-25T05:34:36;97064.48;;;3.44;72.44
56825;BME280;42705;50.326;18.772;2024-03-25T05:39:58;97072.26;;;3.51;72.29
56825;BME280;42705;50.326;18.772;2024-03-25T05:45:20;97075.08;;;3.49;72.48
56825;BME280;42705;50.326;18.772;2024-03-25T05:50:41;97073.64;;;3.53;72.38
56825;BME280;42705;50.326;18.772;2024-03-25T05:56:04;97084.04;;;3.58;72.50
56825;BME280;42705;50.326;18.772;2024-03-25T06:01:27;97085.33;;;3.65;72.32
56825;BME280;42705;50.326;18.772;2024-03-25T06:06:49;97093.44;;;3.68;72.41
56825;BME280;42705;50.326;18.772;2024-03-25T06:12:10;97088.60;;;3.72;72.52
56825;BME280;42705;50.326;18.772;2024-03-25T06:17:34;97090.98;;;3.81;72.42
56825;BME280;42705;50.326;18.772;2024-03-25T06:22:56;97093.81;;;3.92;72.43
56825;BME280;42705;50.326;18.772;2024-03-25T06:28:18;97098.88;;;4.03;71.97
56825;BME280;42705;50.326;18.772;2024-03-25T06:33:40;97109.15;;;4.11;71.96
56825;BME280;42705;50.326;18.772;2024-03-25T06:39:21;97111.30;;;4.16;72.10
56825;BME280;42705;50.326;18.772;2024-03-25T06:44:43;97121.95;;;4.21;71.79
56825;BME280;42705;50.326;18.772;2024-03-25T06:50:05;97127.30;;;4.19;71.81
56825;BME280;42705;50.326;18.772;2024-03-25T06:55:27;97130.39;;;4.19;71.94
56825;BME280;42705;50.326;18.772;2024-03-25T07:00:50;97133.22;;;4.18;71.88
56825;BME280;42705;50.326;18.772;2024-03-25T07:06:12;97136.39;;;4.20;71.70
56825;BME280;42705;50.326;18.772;2024-03-25T07:11:33;97142.30;;;4.19;71.80
56825;BME280;42705;50.326;18.772;2024-03-25T07:16:55;97148.52;;;4.23;71.67
56825;BME280;42705;50.326;18.772;2024-03-25T07:22:17;97154.71;;;4.36;71.49
56825;BME280;42705;50.326;18.772;2024-03-25T07:27:39;97156.86;;;4.41;71.33
56825;BME280;42705;50.326;18.772;2024-03-25T07:33:00;97169.58;;;4.40;71.40
56825;BME280;42705;50.326;18.772;2024-03-25T07:38:22;97175.92;;;4.30;71.40
56825;BME280;42705;50.326;18.772;2024-03-25T07:43:44;97184.09;;;4.22;71.42
56825;BME280;42705;50.326;18.772;2024-03-25T07:49:06;97183.27;;;4.11;71.69
56825;BME280;42705;50.326;18.772;2024-03-25T07:54:29;97183.44;;;4.11;71.75
56825;BME280;42705;50.326;18.772;2024-03-25T07:59:51;97182.05;;;4.19;71.68
56825;BME280;42705;50.326;18.772;2024-03-25T08:05:13;97186.99;;;4.24;71.94
56825;BME280;42705;50.326;18.772;2024-03-25T08:10:34;97185.34;;;4.36;72.09
56825;BME280;42705;50.326;18.772;2024-03-25T08:15:59;97188.57;;;4.48;71.80
56825;BME280;42705;50.326;18.772;2024-03-25T08:21:21;97193.62;;;4.62;72.02
56825;BME280;42705;50.326;18.772;2024-03-25T08:26:44;97196.46;;;4.71;71.92
56825;BME280;42705;50.326;18.772;2024-03-25T08:32:06;97203.36;;;4.84;71.78
56825;BME280;42705;50.326;18.772;2024-03-25T08:37:28;97205.43;;;4.94;71.85
56825;BME280;42705;50.326;18.772;2024-03-25T08:42:49;97207.39;;;4.97;71.84
56825;BME280;42705;50.326;18.772;2024-03-25T08:48:11;97213.22;;;4.99;71.91
56825;BME280;42705;50.326;18.772;2024-03-25T08:53:35;97232.04;;;5.02;72.35
56825;BME280;42705;50.326;18.772;2024-03-25T08:58:57;97236.84;;;5.20;71.99
56825;BME280;42705;50.326;18.772;2024-03-25T09:04:19;97236.08;;;5.43;71.88
56825;BME280;42705;50.326;18.772;2024-03-25T09:09:41;97239.77;;;5.54;71.79
56825;BME280;42705;50.326;18.772;2024-03-25T09:15:22;97233.77;;;5.80;71.49
56825;BME280;42705;50.326;18.772;2024-03-25T09:20:44;97228.89;;;6.04;71.12
56825;BME280;42705;50.326;18.772;2024-03-25T09:26:06;97233.07;;;6.04;71.10
56825;BME280;42705;50.326;18.772;2024-03-25T09:31:27;97243.77;;;5.95;70.91
56825;BME280;42705;50.326;18.772;2024-03-25T09:36:49;97245.60;;;6.09;70.79
56825;BME280;42705;50.326;18.772;2024-03-25T09:42:14;97245.71;;;6.34;70.10
56825;BME280;42705;50.326;18.772;2024-03-25T09:47:38;97235.70;;;6.58;70.01
56825;BME280;42705;50.326;18.772;2024-03-25T09:53:01;97231.69;;;6.92;69.91
56825;BME280;42705;50.326;18.772;2024-03-25T09:58:24;97234.77;;;7.22;69.09
56825;BME280;42705;50.326;18.772;2024-03-25T10:03:46;97227.84;;;7.45;68.35
56825;BME280;42705;50.326;18.772;2024-03-25T10:09:08;97233.42;;;7.54;67.92
56825;BME280;42705;50.326;18.772;2024-03-25T10:14:30;97233.95;;;7.66;67.15
56825;BME280;42705;50.326;18.772;2024-03-25T10:19:56;97236.17;;;7.77;66.06
56825;BME280;42705;50.326;18.772;2024-03-25T10:25:29;97233.40;;;7.77;65.89
56825;BME280;42705;50.326;18.772;2024-03-25T10:30:51;97242.02;;;7.74;66.14
56825;BME280;42705;50.326;18.772;2024-03-25T10:36:13;97251.29;;;7.63;65.64
56825;BME280;42705;50.326;18.772;2024-03-25T10:41:39;97264.30;;;7.65;65.46
56825;BME280;42705;50.326;18.772;2024-03-25T10:47:03;97268.88;;;7.72;65.00
56825;BME280;42705;50.326;18.772;2024-03-25T10:52:27;97279.18;;;7.67;64.20
56825;BME280;42705;50.326;18.772;2024-03-25T10:57:51;97294.47;;;7.47;64.59
56825;BME280;42705;50.326;18.772;2024-03-25T11:03:13;97294.92;;;7.30;64.80
56825;BME280;42705;50.326;18.772;2024-03-25T11:08:37;97287.00;;;7.46;65.06
56825;BME280;42705;50.326;18.772;2024-03-25T11:14:03;97282.23;;;7.56;64.90
56825;BME280;42705;50.326;18.772;2024-03-25T11:19:29;97283.16;;;7.61;64.67
56825;BME280;42705;50.326;18.772;2024-03-25T11:24:51;97275.11;;;7.91;64.17
56825;BME280;42705;50.326;18.772;2024-03-25T11:30:15;97275.39;;;8.21;63.52
56825;BME280;42705;50.326;18.772;2024-03-25T11:35:38;97271.05;;;8.34;62.85
56825;BME280;42705;50.326;18.772;2024-03-25T11:41:00;97270.73;;;8.22;62.43
56825;BME280;42705;50.326;18.772;2024-03-25T11:46:25;97317.91;;;7.77;62.26
56825;BME280;42705;50.326;18.772;2024-03-25T11:51:47;97329.96;;;6.74;62.29
56825;BME280;42705;50.326;18.772;2024-03-25T11:57:09;97327.06;;;6.07;63.41
56825;BME280;42705;50.326;18.772;2024-03-25T12:02:32;97315.31;;;6.03;63.97
56825;BME280;42705;50.326;18.772;2024-03-25T12:07:53;97300.50;;;6.61;64.26
56825;BME280;42705;50.326;18.772;2024-03-25T12:13:15;97297.47;;;7.09;64.46
56825;BME280;42705;50.326;18.772;2024-03-25T12:18:40;97296.68;;;7.70;64.93
56825;BME280;42705;50.326;18.772;2024-03-25T12:24:03;97298.66;;;8.31;64.60
56825;BME280;42705;50.326;18.772;2024-03-25T12:29:25;97309.08;;;8.08;64.22
56825;BME280;42705;50.326;18.772;2024-03-25T12:34:48;97297.31;;;8.08;63.70
56825;BME280;42705;50.326;18.772;2024-03-25T12:40:10;97294.30;;;8.71;64.51
56825;BME280;42705;50.326;18.772;2024-03-25T12:45:32;97299.02;;;11.34;63.29
56825;BME280;42705;50.326;18.772;2024-03-25T12:50:54;97278.06;;;15.94;57.53
56825;BME280;42705;50.326;18.772;2024-03-25T12:56:16;97283.38;;;18.20;53.92
56825;BME280;42705;50.326;18.772;2024-03-25T13:01:38;97278.78;;;16.15;51.50
56825;BME280;42705;50.326;18.772;2024-03-25T13:07:00;97293.31;;;14.05;51.08
56825;BME280;42705;50.326;18.772;2024-03-25T13:12:21;97298.73;;;12.36;51.54
56825;BME280;42705;50.326;18.772;2024-03-25T13:17:43;97306.15;;;12.05;51.88
56825;BME280;42705;50.326;18.772;2024-03-25T13:23:05;97299.93;;;15.68;48.07
56825;BME280;42705;50.326;18.772;2024-03-25T13:28:27;97299.92;;;20.06;43.82
56825;BME280;42705;50.326;18.772;2024-03-25T13:33:50;97294.33;;;22.81;39.13
56825;BME280;42705;50.326;18.772;2024-03-25T13:39:13;97290.84;;;22.27;39.68
56825;BME280;42705;50.326;18.772;2024-03-25T13:44:35;97297.46;;;19.78;40.98
56825;BME280;42705;50.326;18.772;2024-03-25T13:50:02;97297.69;;;17.43;42.18
56825;BME280;42705;50.326;18.772;2024-03-25T13:55:24;97291.17;;;19.96;39.83
56825;BME280;42705;50.326;18.772;2024-03-25T14:00:47;97289.23;;;24.38;37.01
56825;BME280;42705;50.326;18.772;2024-03-25T14:06:08;97294.73;;;27.65;34.35
56825;BME280;42705;50.326;18.772;2024-03-25T14:11:30;97295.59;;;28.36;33.53
56825;BME280;42705;50.326;18.772;2024-03-25T14:16:52;97300.23;;;24.24;34.38
56825;BME280;42705;50.326;18.772;2024-03-25T14:22:14;97307.80;;;20.90;35.74
56825;BME280;42705;50.326;18.772;2024-03-25T14:27:36;97310.32;;;19.59;36.51
56825;BME280;42705;50.326;18.772;2024-03-25T14:32:59;97309.52;;;22.43;34.40
56825;BME280;42705;50.326;18.772;2024-03-25T14:38:20;97313.01;;;24.31;32.85
56825;BME280;42705;50.326;18.772;2024-03-25T14:43:42;97312.92;;;24.31;32.26
56825;BME280;42705;50.326;18.772;2024-03-25T14:49:04;97310.91;;;24.15;31.90
56825;BME280;42705;50.326;18.772;2024-03-25T14:54:37;97318.05;;;20.71;32.70
56825;BME280;42705;50.326;18.772;2024-03-25T14:59:59;97322.47;;;19.99;33.05
56825;BME280;42705;50.326;18.772;2024-03-25T15:05:20;97329.73;;;18.13;35.15
56825;BME280;42705;50.326;18.772;2024-03-25T15:10:46;97333.10;;;16.71;36.55
56825;BME280;42705;50.326;18.772;2024-03-25T15:16:08;97339.89;;;15.31;37.48
56825;BME280;42705;50.326;18.772;2024-03-25T15:21:30;97343.54;;;13.97;38.72
56825;BME280;42705;50.326;18.772;2024-03-25T15:26:52;97359.79;;;12.85;39.65
56825;BME280;42705;50.326;18.772;2024-03-25T15:32:14;97369.77;;;11.95;40.39
56825;BME280;42705;50.326;18.772;2024-03-25T15:37:37;97386.66;;;11.67;40.88
56825;BME280;42705;50.326;18.772;2024-03-25T15:42:59;97380.65;;;13.84;39.68
56825;BME280;42705;50.326;18.772;2024-03-25T15:48:23;97385.72;;;15.40;38.59
56825;BME280;42705;50.326;18.772;2024-03-25T15:53:45;97385.06;;;15.62;38.54
56825;BME280;42705;50.326;18.772;2024-03-25T15:59:07;97384.45;;;14.77;39.30
56825;BME280;42705;50.326;18.772;2024-03-25T16:04:29;97389.41;;;14.07;39.57
56825;BME280;42705;50.326;18.772;2024-03-25T16:09:51;97394.45;;;14.63;39.40
56825;BME280;42705;50.326;18.772;2024-03-25T16:15:13;97398.55;;;15.09;39.44
56825;BME280;42705;50.326;18.772;2024-03-25T16:20:34;97394.84;;;14.27;39.99
56825;BME280;42705;50.326;18.772;2024-03-25T16:25:56;97402.72;;;13.02;41.02
56825;BME280;42705;50.326;18.772;2024-03-25T16:31:18;97408.55;;;12.03;41.96
56825;BME280;42705;50.326;18.772;2024-03-25T16:36:40;97415.73;;;11.20;42.86
56825;BME280;42705;50.326;18.772;2024-03-25T16:42:02;97421.57;;;10.62;44.07
56825;BME280;42705;50.326;18.772;2024-03-25T16:47:24;97432.75;;;10.24;44.86
56825;BME280;42705;50.326;18.772;2024-03-25T16:52:46;97434.77;;;9.69;45.59
56825;BME280;42705;50.326;18.772;2024-03-25T16:58:08;97444.71;;;9.14;46.45
56825;BME280;42705;50.326;18.772;2024-03-25T17:03:30;97455.36;;;8.59;47.13
56825;BME280;42705;50.326;18.772;2024-03-25T17:08:52;97460.41;;;8.14;47.90
56825;BME280;42705;50.326;18.772;2024-03-25T17:14:14;97467.83;;;7.78;49.04
56825;BME280;42705;50.326;18.772;2024-03-25T17:19:36;97477.23;;;7.46;50.05
56825;BME280;42705;50.326;18.772;2024-03-25T17:24:58;97485.00;;;7.20;50.69
56825;BME280;42705;50.326;18.772;2024-03-25T17:30:24;97487.86;;;7.00;51.71
56825;BME280;42705;50.326;18.772;2024-03-25T17:35:46;97495.67;;;6.75;52.28
56825;BME280;42705;50.326;18.772;2024-03-25T17:41:07;97500.84;;;6.52;53.17
56825;BME280;42705;50.326;18.772;2024-03-25T17:46:30;97510.38;;;6.38;54.03
56825;BME280;42705;50.326;18.772;2024-03-25T17:51:53;97515.34;;;6.29;54.61
56825;BME280;42705;50.326;18.772;2024-03-25T17:57:17;97520.36;;;6.23;55.20
56825;BME280;42705;50.326;18.772;2024-03-25T18:02:39;97519.61;;;6.16;55.57
56825;BME280;42705;50.326;18.772;2024-03-25T18:08:03;97521.98;;;6.11;56.12
56825;BME280;42705;50.326;18.772;2024-03-25T18:13:25;97523.52;;;6.09;56.55
56825;BME280;42705;50.326;18.772;2024-03-25T18:18:47;97526.52;;;6.10;56.87
56825;BME280;42705;50.326;18.772;2024-03-25T18:24:08;97531.11;;;6.13;57.17
56825;BME280;42705;50.326;18.772;2024-03-25T18:29:30;97535.25;;;6.17;57.44
56825;BME280;42705;50.326;18.772;2024-03-25T18:34:52;97535.87;;;6.24;57.80
56825;BME280;42705;50.326;18.772;2024-03-25T18:40:14;97535.07;;;6.30;57.87
56825;BME280;42705;50.326;18.772;2024-03-25T18:45:36;97535.73;;;6.36;58.12
56825;BME280;42705;50.326;18.772;2024-03-25T18:50:58;97540.52;;;6.42;58.29
56825;BME280;42705;50.326;18.772;2024-03-25T18:56:21;97544.48;;;6.45;58.24
56825;BME280;42705;50.326;18.772;2024-03-25T19:01:42;97549.67;;;6.41;58.36
56825;BME280;42705;50.326;18.772;2024-03-25T19:07:04;97556.50;;;6.36;58.34
56825;BME280;42705;50.326;18.772;2024-03-25T19:12:26;97568.71;;;6.33;58.30
56825;BME280;42705;50.326;18.772;2024-03-25T19:17:48;97575.38;;;6.31;58.65
56825;BME280;42705;50.326;18.772;2024-03-25T19:23:09;97579.41;;;6.28;58.92
56825;BME280;42705;50.326;18.772;2024-03-25T19:28:31;97578.60;;;6.28;58.88
56825;BME280;42705;50.326;18.772;2024-03-25T19:33:53;97576.95;;;6.22;59.09
56825;BME280;42705;50.326;18.772;2024-03-25T19:39:15;97580.38;;;6.11;59.18
56825;BME280;42705;50.326;18.772;2024-03-25T19:44:37;97583.17;;;5.98;59.45
56825;BME280;42705;50.326;18.772;2024-03-25T19:49:59;97576.67;;;5.85;59.80
56825;BME280;42705;50.326;18.772;2024-03-25T19:55:21;97574.70;;;5.88;60.28
56825;BME280;42705;50.326;18.772;2024-03-25T20:00:42;97574.90;;;6.00;60.53
56825;BME280;42705;50.326;18.772;2024-03-25T20:06:05;97579.58;;;6.08;60.61
56825;BME280;42705;50.326;18.772;2024-03-25T20:11:27;97581.15;;;6.14;60.65
56825;BME280;42705;50.326;18.772;2024-03-25T20:16:49;97580.36;;;6.15;60.71
56825;BME280;42705;50.326;18.772;2024-03-25T20:22:10;97582.10;;;6.11;60.79
56825;BME280;42705;50.326;18.772;2024-03-25T20:27:32;97592.02;;;6.11;61.00
56825;BME280;42705;50.326;18.772;2024-03-25T20:32:54;97596.23;;;6.05;60.87
56825;BME280;42705;50.326;18.772;2024-03-25T20:38:16;97602.19;;;5.94;61.11
56825;BME280;42705;50.326;18.772;2024-03-25T20:43:39;97598.46;;;5.81;61.11
56825;BME280;42705;50.326;18.772;2024-03-25T20:49:01;97602.08;;;5.71;61.32
56825;BME280;42705;50.326;18.772;2024-03-25T20:54:23;97610.20;;;5.61;61.48
56825;BME280;42705;50.326;18.772;2024-03-25T20:59:47;97608.53;;;5.43;61.82
56825;BME280;42705;50.326;18.772;2024-03-25T21:05:08;97610.77;;;5.23;62.20
56825;BME280;42705;50.326;18.772;2024-03-25T21:10:32;97617.91;;;5.14;62.59
56825;BME280;42705;50.326;18.772;2024-03-25T21:15:54;97619.07;;;5.08;63.09
56825;BME280;42705;50.326;18.772;2024-03-25T21:21:16;97621.14;;;4.99;63.43
56825;BME280;42705;50.326;18.772;2024-03-25T21:26:38;97621.84;;;4.95;63.64
56825;BME280;42705;50.326;18.772;2024-03-25T21:32:00;97619.70;;;4.96;64.10
56825;BME280;42705;50.326;18.772;2024-03-25T21:37:22;97620.24;;;5.04;64.22
56825;BME280;42705;50.326;18.772;2024-03-25T21:42:43;97621.02;;;5.10;64.33
56825;BME280;42705;50.326;18.772;2024-03-25T21:48:06;97628.30;;;4.96;64.03
56825;BME280;42705;50.326;18.772;2024-03-25T21:53:28;97636.23;;;4.75;64.22
56825;BME280;42705;50.326;18.772;2024-03-25T21:58:50;97636.80;;;4.61;64.72
56825;BME280;42705;50.326;18.772;2024-03-25T22:04:12;97642.52;;;4.48;64.79
56825;BME280;42705;50.326;18.772;2024-03-25T22:09:33;97641.55;;;4.38;65.10
56825;BME280;42705;50.326;18.772;2024-03-25T22:14:56;97644.18;;;4.32;65.48
56825;BME280;42705;50.326;18.772;2024-03-25T22:20:19;97644.09;;;4.23;65.59
56825;BME280;42705;50.326;18.772;2024-03-25T22:25:41;97650.56;;;4.13;65.75
56825;BME280;42705;50.326;18.772;2024-03-25T22:31:03;97654.21;;;4.08;66.11
56825;BME280;42705;50.326;18.772;2024-03-25T22:36:25;97652.73;;;4.05;66.46
56825;BME280;42705;50.326;18.772;2024-03-25T22:41:47;97649.09;;;4.10;66.29
56825;BME280;42705;50.326;18.772;2024-03-25T22:47:09;97642.66;;;4.17;66.40
56825;BME280;42705;50.326;18.772;2024-03-25T22:52:31;97639.09;;;4.20;66.49
56825;BME280;42705;50.326;18.772;2024-03-25T22:57:53;97642.82;;;4.21;66.47
56825;BME280;42705;50.326;18.772;2024-03-25T23:03:15;97647.80;;;4.29;66.57
56825;BME280;42705;50.326;18.772;2024-03-25T23:08:37;97647.70;;;4.32;66.55
56825;BME280;42705;50.326;18.772;2024-03-25T23:13:58;97648.69;;;4.35;66.63
56825;BME280;42705;50.326;18.772;2024-03-25T23:19:20;97652.41;;;4.41;66.75
56825;BME280;42705;50.326;18.772;2024-03-25T23:24:42;97657.55;;;4.41;66.65
56825;BME280;42705;50.326;18.772;2024-03-25T23:30:06;97657.09;;;4.36;66.77
56825;BME280;42705;50.326;18.772;2024-03-25T23:35:30;97658.90;;;4.28;66.89
56825;BME280;42705;50.326;18.772;2024-03-25T23:40:53;97658.12;;;4.14;66.74
56825;BME280;42705;50.326;18.772;2024-03-25T23:46:14;97656.35;;;4.07;67.09
56825;BME280;42705;50.326;18.772;2024-03-25T23:51:36;97653.95;;;4.07;67.38
56825;BME280;42705;50.326;18.772;2024-03-25T23:57:05;97655.79;;;4.03;67.42
